Time;durP1;ratioP1;P1;durP2;ratioP2;P2;SDS_P1;SDS_P2;PMS_P1;PMS_P2;Temp;Humidity;BMP_temperature;BMP_pressure;BME280_temperature;BME280_humidity;BME280_pressure;Samples;Min_cycle;Max_cycle;Signal;HPM_P1;HPM_P2
2023/09/24 00:02:04;;;;;;;;;;;;;;;16.33;44.68;100763.59;5065853;28;1043;-62
2023/09/24 00:04:30;;;;;;;;;;;;;;;17.12;46.06;100762.50;5071316;28;1192;-61
2023/09/24 00:06:56;;;;;;;;;;;;;;;16.69;46.65;100757.28;5066361;28;1213;-62
2023/09/24 00:09:21;;;;;;;;;;;;;;;16.53;46.45;100753.72;5074718;28;1137;-62
2023/09/24 00:11:47;;;;;;;;;;;;;;;16.46;45.94;100764.16;5065310;28;1985;-61
2023/09/24 00:14:13;;;;;;;;;;;;;;;16.48;45.65;100761.94;5068681;28;1147;-62
2023/09/24 00:16:39;;;;;;;;;;;;;;;16.38;45.40;100771.84;5057388;28;1102;-62
2023/09/24 00:19:04;;;;;;;;;;;;;;;16.41;45.35;100759.47;5074119;28;1237;-63
2023/09/24 00:21:30;;;;;;;;;;;;;;;16.36;45.29;100763.03;5060404;28;1007;-62
2023/09/24 00:23:56;;;;;;;;;;;;;;;16.39;45.05;100754.25;5072083;28;1178;-63
2023/09/24 00:26:22;;;;;;;;;;;;;;;16.34;44.94;100750.69;5067096;28;1102;-64
2023/09/24 00:28:48;;;;;;;;;;;;;;;17.09;46.03;100745.47;5078635;28;1109;-63
2023/09/24 00:31:13;;;;;;;;;;;;;;;16.75;47.09;100746.03;5078403;28;1082;-64
2023/09/24 00:33:39;;;;;;;;;;;;;;;16.58;46.70;100740.84;5065038;28;1918;-63
2023/09/24 00:36:05;;;;;;;;;;;;;;;16.53;46.02;100742.75;5069505;28;1154;-63
2023/09/24 00:38:31;;;;;;;;;;;;;;;16.53;46.00;100740.00;5074437;28;1191;-63
2023/09/24 00:40:57;;;;;;;;;;;;;;;16.47;45.43;100741.13;5069291;28;1162;-63
2023/09/24 00:43:30;;;;;;;;;;;;;;;16.47;45.42;100738.38;5060274;28;1050;-65
2023/09/24 00:45:57;;;;;;;;;;;;;;;16.40;45.22;100744.94;5050361;28;1146;-63
2023/09/24 00:48:23;;;;;;;;;;;;;;;16.36;45.27;100754.81;5040141;28;1127;-63
2023/09/24 00:50:48;;;;;;;;;;;;;;;16.37;45.08;100755.66;5068889;28;1203;-64
2023/09/24 00:53:14;;;;;;;;;;;;;;;16.41;44.88;100749.34;5061103;28;1988;-63
2023/09/24 00:55:40;;;;;;;;;;;;;;;17.14;46.15;100743.81;5057782;28;1058;-63
2023/09/24 00:58:05;;;;;;;;;;;;;;;16.62;46.97;100743.88;5040110;28;1098;-63
2023/09/24 01:00:34;;;;;;;;;;;;;;;16.68;46.10;100747.44;5040416;28;1031;-63
2023/09/24 01:02:59;;;;;;;;;;;;;;;16.56;45.81;100742.19;5062190;28;1072;-62
2023/09/24 01:05:25;;;;;;;;;;;;;;;16.45;45.68;100744.09;5059824;28;1043;-62
2023/09/24 01:07:51;;;;;;;;;;;;;;;16.36;45.76;100738.34;5043833;28;1142;-63
2023/09/24 01:10:16;;;;;;;;;;;;;;;16.38;45.37;100740.81;5068056;28;1109;-62
2023/09/24 01:12:52;;;;;;;;;;;;;;;16.32;45.43;100739.97;5056314;28;1917;-63
2023/09/24 01:15:18;;;;;;;;;;;;;;;16.39;45.04;100740.53;5051841;28;1174;-64
2023/09/24 01:17:44;;;;;;;;;;;;;;;16.29;45.43;100746.03;5041399;28;1117;-64
2023/09/24 01:20:13;;;;;;;;;;;;;;;16.37;45.00;100750.97;5062773;28;1238;-63
2023/09/24 01:22:39;;;;;;;;;;;;;;;16.29;44.92;100746.03;5045920;28;1117;-62
2023/09/24 01:25:06;;;;;;;;;;;;;;;16.31;44.98;100738.31;5047701;28;1059;-61
2023/09/24 01:27:36;;;;;;;;;;;;;;;16.92;46.30;100734.78;5060828;28;1127;-63
2023/09/24 01:30:05;;;;;;;;;;;;;;;16.64;46.47;100735.34;5066132;28;1189;-62
2023/09/24 01:32:30;;;;;;;;;;;;;;;16.58;45.87;100731.78;5065341;28;1981;-62
2023/09/24 01:34:56;;;;;;;;;;;;;;;16.57;45.70;100739.19;5059433;28;1202;-62
2023/09/24 01:37:21;;;;;;;;;;;;;;;16.47;45.49;100732.88;5071583;28;1126;-62
2023/09/24 01:39:47;;;;;;;;;;;;;;;16.31;45.55;100741.06;5069451;28;1102;-61
2023/09/24 01:42:13;;;;;;;;;;;;;;;16.31;45.54;100734.78;5059329;28;1100;-62
2023/09/24 01:44:40;;;;;;;;;;;;;;;16.45;44.88;100727.63;5073978;28;1086;-62
2023/09/24 01:47:05;;;;;;;;;;;;;;;16.42;44.83;100726.28;5059124;28;1167;-63
2023/09/24 01:49:31;;;;;;;;;;;;;;;16.30;44.96;100722.97;5041989;28;1064;-62
2023/09/24 01:51:57;;;;;;;;;;;;;;;16.36;44.85;100727.38;5058257;28;1917;-61
2023/09/24 01:54:25;;;;;;;;;;;;;;;16.21;45.16;100735.59;5069037;28;1123;-61
2023/09/24 01:56:50;;;;;;;;;;;;;;;16.33;44.94;100725.19;5070910;28;1058;-62
2023/09/24 01:59:16;;;;;;;;;;;;;;;16.30;44.78;100728.47;5051559;28;1342;-62
2023/09/24 02:01:44;;;;;;;;;;;;;;;16.24;44.90;100733.13;5052825;28;1296;-62
2023/09/24 02:04:10;;;;;;;;;;;;;;;16.24;44.94;100735.03;5052069;28;1199;-61
2023/09/24 02:06:35;;;;;;;;;;;;;;;16.52;45.34;100741.94;5039524;28;1527;-61
2023/09/24 02:09:01;;;;;;;;;;;;;;;16.74;46.54;100749.06;5067204;28;1060;-61
2023/09/24 02:11:27;;;;;;;;;;;;;;;16.44;46.54;100739.75;5070782;28;1034;-62
2023/09/24 02:13:54;;;;;;;;;;;;;;;16.45;46.10;100751.53;5038979;28;1430;-62
2023/09/24 02:16:20;;;;;;;;;;;;;;;16.43;45.79;100738.09;5038830;28;1140;-62
2023/09/24 02:18:46;;;;;;;;;;;;;;;16.42;45.38;100750.16;5056668;28;1056;-61
2023/09/24 02:21:15;;;;;;;;;;;;;;;16.32;45.31;100739.97;5061528;28;1055;-63
2023/09/24 02:23:44;;;;;;;;;;;;;;;16.37;45.26;100740.00;5032705;28;1091;-62
2023/09/24 02:26:09;;;;;;;;;;;;;;;16.39;45.14;100742.47;5057035;28;1043;-63
2023/09/24 02:28:38;;;;;;;;;;;;;;;16.36;44.79;100749.31;5070223;28;1075;-63
2023/09/24 02:31:06;;;;;;;;;;;;;;;16.31;44.90;100752.03;5068731;28;1125;-62
2023/09/24 02:33:32;;;;;;;;;;;;;;;16.19;44.83;100757.81;5068261;28;1902;-63
2023/09/24 02:35:57;;;;;;;;;;;;;;;17.12;45.86;100757.03;5056593;28;1054;-63
2023/09/24 02:38:24;;;;;;;;;;;;;;;16.64;46.46;100752.63;5069183;28;1154;-63
2023/09/24 02:40:50;;;;;;;;;;;;;;;16.45;46.49;100762.50;5038498;28;1126;-62
2023/09/24 02:43:15;;;;;;;;;;;;;;;16.43;45.79;100754.56;5052875;28;1232;-63
2023/09/24 02:45:41;;;;;;;;;;;;;;;16.39;45.42;100751.50;5062283;28;859;-63
2023/09/24 02:48:07;;;;;;;;;;;;;;;16.36;45.36;100765.78;5069258;28;1059;-63
2023/09/24 02:50:32;;;;;;;;;;;;;;;16.41;45.04;100743.84;5063373;28;1080;-62
2023/09/24 02:52:58;;;;;;;;;;;;;;;16.30;45.32;100747.69;5058242;28;1912;-62
2023/09/24 02:55:25;;;;;;;;;;;;;;;16.24;45.01;100748.75;5068454;28;1102;-62
2023/09/24 02:57:50;;;;;;;;;;;;;;;16.29;45.03;100743.28;5056039;28;1181;-63
2023/09/24 03:00:26;;;;;;;;;;;;;;;16.23;45.01;100738.91;5063510;28;1102;-63
2023/09/24 03:02:53;;;;;;;;;;;;;;;16.32;44.87;100744.66;5060445;28;988;-63
2023/09/24 03:05:24;;;;;;;;;;;;;;;16.22;44.87;100746.28;5047241;28;1230;-62
2023/09/24 03:07:51;;;;;;;;;;;;;;;16.23;44.89;100738.91;5057869;28;1764;-62
2023/09/24 03:10:17;;;;;;;;;;;;;;;17.12;45.75;100732.28;5049965;28;917;-62
2023/09/24 03:12:43;;;;;;;;;;;;;;;16.58;46.49;100734.53;5075525;28;1992;-62
2023/09/24 03:15:10;;;;;;;;;;;;;;;16.45;45.99;100729.56;5076075;28;1026;-58
2023/09/24 03:17:36;;;;;;;;;;;;;;;16.41;46.05;100735.63;5054302;28;1549;-58
2023/09/24 03:20:05;;;;;;;;;;;;;;;16.38;45.55;100733.41;5057855;28;1209;-59
2023/09/24 03:22:30;;;;;;;;;;;;;;;16.36;45.31;100732.84;5056886;28;1109;-59
2023/09/24 03:24:57;;;;;;;;;;;;;;;16.23;45.29;100739.72;5055368;28;1142;-58
2023/09/24 03:27:22;;;;;;;;;;;;;;;16.24;45.21;100746.00;5042017;28;1148;-62
2023/09/24 03:29:48;;;;;;;;;;;;;;;16.27;45.00;100759.22;5047870;28;1560;-61
2023/09/24 03:32:15;;;;;;;;;;;;;;;16.28;44.98;100752.59;5055405;28;1894;-60
2023/09/24 03:34:40;;;;;;;;;;;;;;;16.29;44.82;100753.44;5045849;28;1153;-63
2023/09/24 03:37:09;;;;;;;;;;;;;;;16.21;45.13;100752.03;5054777;28;1229;-63
2023/09/24 03:39:35;;;;;;;;;;;;;;;16.59;45.48;100758.97;5057782;28;1237;-63
2023/09/24 03:42:00;;;;;;;;;;;;;;;16.73;46.80;100756.50;5043722;28;1117;-62
2023/09/24 03:44:26;;;;;;;;;;;;;;;16.56;46.44;100764.16;5057477;28;1141;-62
2023/09/24 03:46:51;;;;;;;;;;;;;;;16.40;46.34;100763.34;5050887;28;1204;-60
2023/09/24 03:49:17;;;;;;;;;;;;;;;16.40;45.76;100775.13;5048298;28;1135;-62
2023/09/24 03:51:43;;;;;;;;;;;;;;;16.42;45.38;100775.69;5073272;28;1987;-59
2023/09/24 03:54:09;;;;;;;;;;;;;;;16.37;45.35;100772.94;5059426;28;1020;-56
2023/09/24 03:56:35;;;;;;;;;;;;;;;16.44;45.74;100769.94;5059504;28;1121;-61
2023/09/24 03:59:01;;;;;;;;;;;;;;;16.35;45.37;100764.13;5057954;28;1362;-67
2023/09/24 04:01:27;;;;;;;;;;;;;;;16.39;45.32;100767.16;5054248;28;1217;-60
2023/09/24 04:03:54;;;;;;;;;;;;;;;16.31;44.98;100771.25;5059483;28;1059;-60
2023/09/24 04:06:19;;;;;;;;;;;;;;;16.39;44.94;100770.72;5072827;28;1083;-63
2023/09/24 04:08:45;;;;;;;;;;;;;;;16.18;45.46;100769.06;5069198;28;1100;-60
2023/09/24 04:11:12;;;;;;;;;;;;;;;16.32;44.84;100770.16;5066693;28;1085;-63
2023/09/24 04:13:38;;;;;;;;;;;;;;;16.86;46.45;100768.03;5063068;28;1913;-63
2023/09/24 04:16:10;;;;;;;;;;;;;;;16.63;46.27;100767.44;5067421;28;1296;-63
2023/09/24 04:18:36;;;;;;;;;;;;;;;16.39;46.11;100783.63;5070963;28;1186;-62
2023/09/24 04:21:02;;;;;;;;;;;;;;;16.49;45.75;100777.34;5075976;28;1082;-62
2023/09/24 04:23:27;;;;;;;;;;;;;;;16.39;45.63;100776.22;5069856;28;1055;-63
2023/09/24 04:25:53;;;;;;;;;;;;;;;16.43;45.44;100777.31;5073885;28;1059;-64
2023/09/24 04:28:19;;;;;;;;;;;;;;;16.35;45.53;100780.59;5070443;28;1178;-66
2023/09/24 04:30:46;;;;;;;;;;;;;;;16.38;45.23;100785.56;5060218;28;1102;-60
2023/09/24 04:33:11;;;;;;;;;;;;;;;16.38;44.94;100780.06;5071525;28;1986;-61
2023/09/24 04:35:37;;;;;;;;;;;;;;;16.35;44.99;100777.84;5058547;28;1113;-64
2023/09/24 04:38:02;;;;;;;;;;;;;;;16.29;44.90;100784.44;5071659;28;1344;-65
2023/09/24 04:40:28;;;;;;;;;;;;;;;17.60;43.73;100776.69;5069976;28;1025;-64
2023/09/24 04:42:54;;;;;;;;;;;;;;;17.22;44.62;100774.31;5065534;28;1288;-60
2023/09/24 04:45:20;;;;;;;;;;;;;;;17.12;45.47;100784.50;5067605;28;1112;-61
2023/09/24 04:47:46;;;;;;;;;;;;;;;16.99;45.75;100786.72;5075019;28;1150;-62
2023/09/24 04:50:12;;;;;;;;;;;;;;;16.86;46.54;100784.50;5068421;28;1093;-62
2023/09/24 04:52:38;;;;;;;;;;;;;;;16.89;46.66;100792.22;5070879;28;1976;-61
2023/09/24 04:55:05;;;;;;;;;;;;;;;16.81;47.24;100784.50;5058224;28;1122;-57
2023/09/24 04:57:30;;;;;;;;;;;;;;;16.74;47.37;100793.81;5058324;28;999;-60
2023/09/24 04:59:56;;;;;;;;;;;;;;;16.75;47.55;100792.72;5068007;28;1070;-61
2023/09/24 05:02:23;;;;;;;;;;;;;;;16.70;48.04;100808.38;5064286;28;1178;-59
2023/09/24 05:04:49;;;;;;;;;;;;;;;16.67;48.16;100798.75;5049801;28;1122;-59
2023/09/24 05:07:14;;;;;;;;;;;;;;;16.60;48.47;100800.94;5075033;28;1054;-60
2023/09/24 05:09:40;;;;;;;;;;;;;;;16.60;48.81;100803.69;5073001;28;1058;-62
2023/09/24 05:12:05;;;;;;;;;;;;;;;16.56;49.07;100805.34;5065047;28;1984;-60
2023/09/24 05:14:31;;;;;;;;;;;;;;;16.52;49.36;100796.84;5058947;28;1102;-61
2023/09/24 05:16:58;;;;;;;;;;;;;;;16.52;49.53;100798.75;5068284;28;1379;-62
2023/09/24 05:19:23;;;;;;;;;;;;;;;16.47;49.70;100804.25;5073780;28;1141;-63
2023/09/24 05:21:49;;;;;;;;;;;;;;;16.41;49.99;100798.75;5066116;28;1166;-65
2023/09/24 05:24:14;;;;;;;;;;;;;;;16.40;50.24;100812.72;5076016;28;1054;-61
2023/09/24 05:26:40;;;;;;;;;;;;;;;16.38;50.28;100801.19;5076835;28;1148;-61
2023/09/24 05:29:05;;;;;;;;;;;;;;;16.38;50.50;100804.78;5059220;28;991;-61
2023/09/24 05:31:31;;;;;;;;;;;;;;;16.37;50.44;100805.88;5068984;28;1064;-60
2023/09/24 05:33:57;;;;;;;;;;;;;;;16.33;51.00;100813.00;5060131;28;1988;-58
2023/09/24 05:36:23;;;;;;;;;;;;;;;16.42;51.07;100819.59;5067614;28;1078;-58
2023/09/24 05:38:48;;;;;;;;;;;;;;;17.61;48.31;100816.81;5076896;28;1031;-61
2023/09/24 05:41:14;;;;;;;;;;;;;;;17.02;50.00;100819.13;5066618;28;1181;-65
2023/09/24 05:43:44;;;;;;;;;;;;;;;16.83;50.73;100829.81;5057014;28;1130;-65
2023/09/24 05:46:12;;;;;;;;;;;;;;;16.75;50.82;100831.16;5062010;28;1051;-61
2023/09/24 05:48:38;;;;;;;;;;;;;;;16.64;51.20;100832.25;5057650;28;1121;-60
2023/09/24 05:51:07;;;;;;;;;;;;;;;16.57;51.77;100829.75;5070086;28;1466;-63
2023/09/24 05:53:32;;;;;;;;;;;;;;;16.60;51.50;100836.63;5064748;28;1914;-59
2023/09/24 05:55:58;;;;;;;;;;;;;;;16.54;51.73;100840.47;5055767;28;1336;-64
2023/09/24 05:58:23;;;;;;;;;;;;;;;16.48;52.11;100842.41;5059761;28;1470;-65
2023/09/24 06:00:50;;;;;;;;;;;;;;;16.48;52.22;100849.78;5064233;28;1489;-63
2023/09/24 06:03:15;;;;;;;;;;;;;;;16.45;52.38;100853.06;5075069;28;1146;-63
2023/09/24 06:05:41;;;;;;;;;;;;;;;16.38;52.48;100859.66;5071552;28;1304;-64
2023/09/24 06:08:07;;;;;;;;;;;;;;;16.37;52.58;100857.19;5067739;28;1121;-63
2023/09/24 06:10:34;;;;;;;;;;;;;;;16.56;52.70;100847.34;5065876;28;1026;-59
2023/09/24 06:13:00;;;;;;;;;;;;;;;17.56;50.89;100847.91;5075585;28;1975;-64
2023/09/24 06:15:26;;;;;;;;;;;;;;;17.03;52.23;100850.97;5059968;28;1173;-64
2023/09/24 06:17:51;;;;;;;;;;;;;;;16.82;52.72;100854.81;5068503;28;1047;-58
2023/09/24 06:20:17;;;;;;;;;;;;;;;16.74;53.09;100853.41;5069793;28;1075;-60
2023/09/24 06:22:52;;;;;;;;;;;;;;;16.71;52.94;100848.47;5059031;28;1142;-61
2023/09/24 06:25:17;;;;;;;;;;;;;;;16.68;53.23;100855.31;5056754;28;1122;-60
2023/09/24 06:27:43;;;;;;;;;;;;;;;16.62;53.28;100859.16;5076461;28;1031;-60
2023/09/24 06:30:09;;;;;;;;;;;;;;;16.56;53.65;100857.50;5062491;28;1053;-61
2023/09/24 06:32:35;;;;;;;;;;;;;;;16.55;53.35;100861.31;5056514;28;1974;-61
2023/09/24 06:35:00;;;;;;;;;;;;;;;16.55;53.42;100861.31;5065982;28;1122;-63
2023/09/24 06:37:26;;;;;;;;;;;;;;;16.45;53.58;100859.38;5064185;28;1051;-61
2023/09/24 06:39:51;;;;;;;;;;;;;;;16.47;53.78;100848.97;5069461;28;1034;-61
2023/09/24 06:42:17;;;;;;;;;;;;;;;16.46;53.53;100852.81;5067747;28;1149;-63
2023/09/24 06:44:42;;;;;;;;;;;;;;;16.47;53.57;100853.66;5075568;28;1082;-60
2023/09/24 06:47:08;;;;;;;;;;;;;;;16.41;53.70;100856.38;5069862;28;1471;-61
2023/09/24 06:49:33;;;;;;;;;;;;;;;16.37;53.64;100870.91;5067249;28;1134;-60
2023/09/24 06:51:59;;;;;;;;;;;;;;;16.39;53.81;100866.78;5062545;28;1906;-63
2023/09/24 06:54:25;;;;;;;;;;;;;;;17.23;53.25;100865.81;5056208;28;1139;-60
2023/09/24 06:56:51;;;;;;;;;;;;;;;17.27;53.57;100872.41;5065882;28;1155;-62
2023/09/24 06:59:16;;;;;;;;;;;;;;;16.91;54.52;100869.66;5064277;28;1117;-61
2023/09/24 07:01:42;;;;;;;;;;;;;;;16.86;54.30;100869.63;5056451;28;1114;-63
2023/09/24 07:04:07;;;;;;;;;;;;;;;16.73;54.34;100869.06;5061089;28;1173;-60
2023/09/24 07:06:33;;;;;;;;;;;;;;;16.70;54.30;100875.09;5048210;28;1382;-60
2023/09/24 07:08:58;;;;;;;;;;;;;;;16.63;54.28;100869.03;5073509;28;1039;-59
2023/09/24 07:11:36;;;;;;;;;;;;;;;16.56;54.34;100869.31;5064110;28;1477;-60
2023/09/24 07:14:02;;;;;;;;;;;;;;;16.57;54.26;100886.59;5069268;28;1910;-59
2023/09/24 07:16:27;;;;;;;;;;;;;;;16.55;54.29;100880.53;5067438;28;1020;-61
2023/09/24 07:18:53;;;;;;;;;;;;;;;16.53;54.17;100883.56;5070950;28;1332;-63
2023/09/24 07:21:19;;;;;;;;;;;;;;;16.53;54.26;100899.22;5057632;28;1098;-64
2023/09/24 07:23:47;;;;;;;;;;;;;;;16.49;54.23;100896.19;5069641;28;1137;-64
2023/09/24 07:26:13;;;;;;;;;;;;;;;16.48;54.33;100888.22;5064521;28;1144;-61
2023/09/24 07:28:38;;;;;;;;;;;;;;;16.58;54.73;100893.75;5050556;28;1250;-63
2023/09/24 07:31:06;;;;;;;;;;;;;;;17.68;54.08;100888.03;5067118;28;1449;-63
2023/09/24 07:33:31;;;;;;;;;;;;;;;17.10;55.06;100897.44;5055430;28;1902;-61
2023/09/24 07:35:57;;;;;;;;;;;;;;;16.93;55.40;100884.78;5072091;28;1083;-61
2023/09/24 07:38:22;;;;;;;;;;;;;;;16.86;54.90;100889.69;5072712;28;1150;-61
2023/09/24 07:40:49;;;;;;;;;;;;;;;16.79;54.92;100882.78;5059443;28;1106;-59
2023/09/24 07:43:15;;;;;;;;;;;;;;;16.76;54.83;100885.00;5059680;28;1149;-60
2023/09/24 07:45:42;;;;;;;;;;;;;;;16.72;54.71;100885.81;5059430;28;1244;-62
2023/09/24 07:48:10;;;;;;;;;;;;;;;16.73;54.41;100882.81;5064119;28;1217;-62
2023/09/24 07:50:36;;;;;;;;;;;;;;;16.69;54.32;100884.44;5071264;28;1214;-62
2023/09/24 07:53:03;;;;;;;;;;;;;;;16.65;54.65;100894.31;5062268;28;1971;-59
2023/09/24 07:55:28;;;;;;;;;;;;;;;16.67;54.56;100892.09;5074906;28;1098;-60
2023/09/24 07:57:54;;;;;;;;;;;;;;;16.62;54.57;100888.53;5070200;28;1026;-61
2023/09/24 08:00:19;;;;;;;;;;;;;;;16.58;54.75;100886.31;5072364;28;1170;-61
2023/09/24 08:02:45;;;;;;;;;;;;;;;16.53;54.79;100890.97;5068382;28;1093;-59
2023/09/24 08:05:10;;;;;;;;;;;;;;;17.08;55.42;100886.72;5062893;28;992;-63
2023/09/24 08:07:36;;;;;;;;;;;;;;;17.44;55.40;100888.59;5059364;28;1063;-60
2023/09/24 08:10:01;;;;;;;;;;;;;;;17.06;55.83;100896.31;5073877;28;1070;-59
2023/09/24 08:12:27;;;;;;;;;;;;;;;16.90;55.70;100890.81;5062560;28;1902;-60
2023/09/24 08:14:53;;;;;;;;;;;;;;;16.84;55.61;100891.03;5060719;28;1055;-59
2023/09/24 08:17:18;;;;;;;;;;;;;;;16.80;55.60;100892.69;5079065;28;1062;-60
2023/09/24 08:19:44;;;;;;;;;;;;;;;16.77;55.14;100886.66;5063117;28;1307;-59
2023/09/24 08:22:09;;;;;;;;;;;;;;;16.73;55.19;100891.03;5072351;28;1273;-61
2023/09/24 08:24:35;;;;;;;;;;;;;;;16.75;54.91;100893.50;5069858;28;929;-59
2023/09/24 08:27:00;;;;;;;;;;;;;;;16.69;54.95;100895.41;5077772;28;1153;-60
2023/09/24 08:29:26;;;;;;;;;;;;;;;16.63;54.91;100884.69;5066520;28;1067;-60
2023/09/24 08:31:52;;;;;;;;;;;;;;;16.64;54.84;100895.41;5067550;28;1905;-60
2023/09/24 08:34:17;;;;;;;;;;;;;;;16.66;54.56;100893.22;5062746;28;1370;-59
2023/09/24 08:36:43;;;;;;;;;;;;;;;16.56;54.83;100890.44;5078939;28;1401;-62
2023/09/24 08:39:08;;;;;;;;;;;;;;;16.55;55.02;100895.13;5074242;28;1090;-61
2023/09/24 08:41:42;;;;;;;;;;;;;;;16.55;55.05;100892.38;5066508;28;1202;-61
2023/09/24 08:44:07;;;;;;;;;;;;;;;16.58;54.90;100893.75;5062824;28;1186;-60
2023/09/24 08:46:33;;;;;;;;;;;;;;;16.54;54.90;100895.38;5049726;28;1071;-62
2023/09/24 08:48:59;;;;;;;;;;;;;;;16.52;54.82;100894.81;5056349;28;1421;-63
2023/09/24 08:51:24;;;;;;;;;;;;;;;16.54;54.87;100892.63;5056345;28;1142;-62
2023/09/24 08:53:50;;;;;;;;;;;;;;;16.51;54.71;100894.00;5068233;28;1914;-60
2023/09/24 08:56:17;;;;;;;;;;;;;;;16.51;54.90;100887.66;5071334;28;1161;-59
2023/09/24 08:58:43;;;;;;;;;;;;;;;16.51;54.81;100898.66;5049654;28;1168;-62
2023/09/24 09:01:09;;;;;;;;;;;;;;;16.43;54.84;100892.59;5072328;28;933;-58
2023/09/24 09:03:34;;;;;;;;;;;;;;;16.49;54.63;100896.19;5073255;28;1060;-57
2023/09/24 09:06:00;;;;;;;;;;;;;;;16.49;54.60;100884.38;5060059;28;1273;-56
2023/09/24 09:08:25;;;;;;;;;;;;;;;17.33;55.65;100884.22;5078561;28;1122;-60
2023/09/24 09:10:51;;;;;;;;;;;;;;;17.35;56.07;100880.09;5063924;28;1130;-57
2023/09/24 09:13:20;;;;;;;;;;;;;;;17.12;56.19;100891.66;5071907;28;1906;-58
2023/09/24 09:15:50;;;;;;;;;;;;;;;16.97;55.97;100887.81;5071056;28;1002;-59
2023/09/24 09:18:23;;;;;;;;;;;;;;;16.84;55.92;100886.38;5071626;28;1087;-59
2023/09/24 09:20:49;;;;;;;;;;;;;;;16.82;55.64;100887.75;5072403;28;1113;-59
2023/09/24 09:23:18;;;;;;;;;;;;;;;16.81;55.66;100889.66;5075928;28;1129;-57
2023/09/24 09:25:51;;;;;;;;;;;;;;;16.72;55.21;100894.88;5057307;28;1019;-59
2023/09/24 09:28:19;;;;;;;;;;;;;;;16.72;55.18;100889.38;5057794;28;1151;-59
2023/09/24 09:30:56;;;;;;;;;;;;;;;16.69;55.17;100889.94;5066925;28;1077;-59
2023/09/24 09:33:26;;;;;;;;;;;;;;;16.70;55.16;100891.56;5061323;28;1917;-59
2023/09/24 09:35:52;;;;;;;;;;;;;;;16.69;55.03;100891.84;5073626;28;1387;-61
2023/09/24 09:38:17;;;;;;;;;;;;;;;16.75;55.47;100883.34;5070302;28;1100;-63
2023/09/24 09:40:43;;;;;;;;;;;;;;;16.67;55.84;100889.34;5064675;28;1095;-62
2023/09/24 09:43:09;;;;;;;;;;;;;;;16.62;55.76;100889.38;5076559;28;1542;-61
2023/09/24 09:45:34;;;;;;;;;;;;;;;16.64;55.57;100897.34;5058692;28;1018;-61
2023/09/24 09:48:01;;;;;;;;;;;;;;;16.58;55.47;100893.75;5074508;28;1079;-63
2023/09/24 09:50:26;;;;;;;;;;;;;;;16.60;55.35;100889.63;5074977;28;1180;-61
2023/09/24 09:52:53;;;;;;;;;;;;;;;16.60;55.11;100892.34;5059435;28;1926;-62
2023/09/24 09:55:19;;;;;;;;;;;;;;;17.27;56.89;100892.47;5063985;28;1185;-60
2023/09/24 09:57:44;;;;;;;;;;;;;;;17.55;56.82;100881.19;5054971;28;1217;-57
2023/09/24 10:00:10;;;;;;;;;;;;;;;17.21;56.90;100884.53;5056377;28;1141;-63
2023/09/24 10:02:39;;;;;;;;;;;;;;;17.00;56.54;100890.00;5072298;28;1359;-59
2023/09/24 10:05:05;;;;;;;;;;;;;;;16.97;56.31;100889.72;5076788;28;1031;-58
2023/09/24 10:07:30;;;;;;;;;;;;;;;16.94;56.20;100896.56;5065303;28;1080;-63
2023/09/24 10:09:56;;;;;;;;;;;;;;;16.86;55.93;100889.69;5075031;28;1281;-60
2023/09/24 10:12:36;;;;;;;;;;;;;;;16.81;55.88;100884.16;5065854;28;1898;-61
2023/09/24 10:15:20;;;;;;;;;;;;;;;16.84;55.40;100886.38;5069919;28;1121;-61
2023/09/24 10:17:50;;;;;;;;;;;;;;;16.80;55.39;100887.19;5073270;28;1245;-62
2023/09/24 10:20:18;;;;;;;;;;;;;;;16.85;55.48;100885.28;5051770;28;1150;-60
2023/09/24 10:22:44;;;;;;;;;;;;;;;16.76;55.44;100890.50;5064600;28;1202;-61
2023/09/24 10:25:29;;;;;;;;;;;;;;;16.73;55.43;100885.53;5063154;28;1359;-62
2023/09/24 10:28:01;;;;;;;;;;;;;;;16.74;55.19;100884.44;5072959;28;1383;-57
2023/09/24 10:30:27;;;;;;;;;;;;;;;16.74;54.98;100878.94;5056419;28;1229;-64
2023/09/24 10:32:53;;;;;;;;;;;;;;;16.66;55.09;100885.00;5055967;28;1906;-60
2023/09/24 10:35:19;;;;;;;;;;;;;;;16.69;55.22;100876.19;5067892;28;1102;-57
2023/09/24 10:37:58;;;;;;;;;;;;;;;16.69;54.94;100876.19;5074876;28;1189;-60
2023/09/24 10:40:26;;;;;;;;;;;;;;;16.65;54.93;100871.50;5062501;28;1146;-61
2023/09/24 10:43:18;;;;;;;;;;;;;;;16.62;54.94;100877.53;5063369;28;1096;-60
2023/09/24 10:45:43;;;;;;;;;;;;;;;16.62;54.92;100874.81;5054942;28;1593;-60
2023/09/24 10:48:09;;;;;;;;;;;;;;;16.62;54.93;100880.28;5059226;28;1079;-61
2023/09/24 10:50:37;;;;;;;;;;;;;;;16.66;54.64;100881.41;5045102;28;1087;-57
2023/09/24 10:53:02;;;;;;;;;;;;;;;16.58;54.62;100877.28;5065118;28;1969;-61
2023/09/24 10:55:29;;;;;;;;;;;;;;;16.63;54.65;100874.53;5068860;28;1174;-61
2023/09/24 10:57:55;;;;;;;;;;;;;;;16.57;54.60;100872.88;5069621;28;1118;-63
2023/09/24 11:00:21;;;;;;;;;;;;;;;16.54;54.83;100866.00;5065539;28;1058;-59
2023/09/24 11:02:57;;;;;;;;;;;;;;;16.51;54.89;100869.28;5069799;28;1117;-61
2023/09/24 11:05:23;;;;;;;;;;;;;;;16.51;55.02;100860.22;5055844;28;1138;-61
2023/09/24 11:07:48;;;;;;;;;;;;;;;16.55;54.69;100869.56;5055602;28;1086;-64
2023/09/24 11:10:20;;;;;;;;;;;;;;;16.54;54.58;100866.00;5072027;28;1103;-61
2023/09/24 11:12:49;;;;;;;;;;;;;;;16.50;54.97;100864.06;5068684;28;2365;-62
2023/09/24 11:15:15;;;;;;;;;;;;;;;16.57;55.22;100865.44;5069283;28;1031;-64
2023/09/24 11:17:40;;;;;;;;;;;;;;;17.64;56.75;100863.00;5037937;28;1399;-63
2023/09/24 11:20:09;;;;;;;;;;;;;;;17.28;56.96;100857.59;5072522;28;1066;-64
2023/09/24 11:22:34;;;;;;;;;;;;;;;17.08;56.96;100870.22;5062403;28;1171;-64
2023/09/24 11:25:09;;;;;;;;;;;;;;;17.03;56.25;100863.91;5072666;28;1177;-65
2023/09/24 11:27:48;;;;;;;;;;;;;;;16.97;56.00;100868.56;5070172;28;1062;-62
2023/09/24 11:30:15;;;;;;;;;;;;;;;16.88;55.65;100872.94;5069292;28;1066;-63
2023/09/24 11:32:41;;;;;;;;;;;;;;;16.84;55.57;100877.31;5075793;28;1979;-66
2023/09/24 11:35:09;;;;;;;;;;;;;;;16.83;55.51;100867.41;5062238;28;1161;-57
2023/09/24 11:37:44;;;;;;;;;;;;;;;16.80;55.38;100873.47;5063681;28;940;-57
2023/09/24 11:40:23;;;;;;;;;;;;;;;16.72;55.33;100867.41;5055363;28;1114;-56
2023/09/24 11:43:08;;;;;;;;;;;;;;;16.71;55.19;100864.94;5066672;28;1058;-53
2023/09/24 11:45:48;;;;;;;;;;;;;;;16.74;54.97;100859.72;5067578;28;2071;-54
2023/09/24 11:48:20;;;;;;;;;;;;;;;16.70;55.22;100864.09;5071232;28;1055;-56
2023/09/24 11:50:46;;;;;;;;;;;;;;;16.65;55.13;100866.84;5056388;28;1239;-54
2023/09/24 11:53:12;;;;;;;;;;;;;;;16.64;55.11;100865.19;5070027;28;1906;-55
2023/09/24 11:55:38;;;;;;;;;;;;;;;16.60;55.03;100870.41;5075747;28;1296;-55
2023/09/24 11:58:04;;;;;;;;;;;;;;;16.65;54.82;100860.53;5067810;28;1104;-56
2023/09/24 12:00:29;;;;;;;;;;;;;;;16.63;54.80;100865.47;5059060;28;1160;-56
2023/09/24 12:02:55;;;;;;;;;;;;;;;16.57;54.99;100870.94;5064453;28;1050;-56
2023/09/24 12:05:21;;;;;;;;;;;;;;;16.54;54.81;100873.44;5055479;28;1063;-55
2023/09/24 12:07:48;;;;;;;;;;;;;;;16.59;54.71;100874.25;5066221;28;1214;-55
2023/09/24 12:10:13;;;;;;;;;;;;;;;16.59;54.89;100879.75;5062253;28;1166;-57
2023/09/24 12:12:38;;;;;;;;;;;;;;;16.59;54.80;100874.25;5068220;28;1973;-55
2023/09/24 12:15:04;;;;;;;;;;;;;;;17.26;56.85;100868.00;5078983;28;1074;-56
2023/09/24 12:17:30;;;;;;;;;;;;;;;17.37;57.09;100875.13;5067764;28;1198;-57
2023/09/24 12:19:55;;;;;;;;;;;;;;;17.05;57.26;100875.44;5076654;28;1154;-56
2023/09/24 12:22:22;;;;;;;;;;;;;;;16.97;56.52;100879.56;5065253;28;1174;-57
2023/09/24 12:24:48;;;;;;;;;;;;;;;16.91;56.14;100873.25;5072242;28;1027;-57
2023/09/24 12:27:13;;;;;;;;;;;;;;;16.88;56.07;100881.16;5078436;28;1105;-58
2023/09/24 12:29:39;;;;;;;;;;;;;;;16.81;55.63;100886.09;5069802;28;1102;-52
2023/09/24 12:32:04;;;;;;;;;;;;;;;16.81;55.50;100881.41;5058838;28;1913;-55
2023/09/24 12:34:30;;;;;;;;;;;;;;;16.77;55.47;100880.31;5058810;28;1107;-58
2023/09/24 12:36:55;;;;;;;;;;;;;;;16.77;55.25;100891.31;5071476;28;1158;-54
2023/09/24 12:39:21;;;;;;;;;;;;;;;16.74;55.21;100884.44;5058679;28;1031;-57
2023/09/24 12:41:46;;;;;;;;;;;;;;;16.73;55.03;100880.06;5060705;28;1167;-57
2023/09/24 12:44:12;;;;;;;;;;;;;;;16.70;55.00;100880.56;5077961;28;1398;-57
2023/09/24 12:46:37;;;;;;;;;;;;;;;16.65;55.21;100888.81;5065597;28;1074;-55